Prairieville, Louisiana
Current Conditions -  °F | °C
As of 2:15 PM on Friday 21 Nov 2014 (Local Time) from KL38 Reporting Station
Clear Clear  
Wind Chill: 71°   Ceiling: Unl
Heat Index: 71°   Visibility: 10mi
Dew Point: 45°   Wind: 9mph
Humidity: 39%   Direction: 100°E
Pressure: 30.21"   Gusts: 17mph
Location:  30.3°N, 90.97°W
Report Text: KL38 212015Z AUTO 10008G15KT 10SM CLR 22/07 A3021 RMK AO2 T02170072
Loading
Personal Weather Stations






























Interactive Weather Map New forecast layout! Learn more

10-Day Weather Forecast

Advertisements
Track Severe Weather on mobile